Roberts, MT (59070)

7:23 AM MDT on April 18, 2015 (GMT -0600)
Clear Creek Rd, Roberts, MT | | Change Station
CLOSE
Current Station
Personal Weather Station
Location: Roberts, MT
Elevation: 4455 ft
Nearby Weather Stations

Elev 4455 ft 45.38 °N, 109.14 °W | Updated 3 seconds ago

Clear
Clear
34.0 °F
Feels Like 34 °F
N
0.9
Wind Variable Wind from SSW
Gusts 2.5 mph

Today
High -- | Low -- °F
--% Chance of Precip.
Yesterday
High -- | Low -- °F
Precip. -- in
6:26 AM 8:06 PM
Waning Crescent, 0% visible
Pressure 29.98 in
Visibility 10.0 miles
Clouds Few 15000 ft
Few 18000 ft
Windchill 34 °F
Dew Point 27 °F
Humidity 76%
Rainfall 0.00 in
Snow Depth Not available.
UV 1.0 out of 12
Pollen 9.10 out of 12
Air Quality Not available.
Flu Activity Regional
METAR KBIL 181253Z 24015KT 10SM FEW150 FEW180 05/M01 A2999 RMK AO2 SLP152 ACSL DSNT NW-NE T00501011

More Conditions Fewer Conditions

Pressure 29.98 in
Visibility 10.0 miles
Clouds Few 15000 ft
Few 18000 ft
Windchill 34 °F
Dew Point 27 °F
Humidity 76%
Rainfall 0.00 in
Snow Depth Not available.
UV 1.0 out of 12
Pollen 9.10 out of 12
Air Quality Not available.
Flu Activity Regional
METAR KBIL 181253Z 24015KT 10SM FEW150 FEW180 05/M01 A2999 RMK AO2 SLP152 ACSL DSNT NW-NE T00501011

More Conditions Fewer Conditions

10-Day Weather Forecast

Almanac

Astronomy

Apr. 18, 2015 Rise Set
Actual Time
Civil Twilight
Nautical Twilight
Astronomical Twilight
Moon
Length of Visible Light
Length of Day
Tomorrow will be .
, % of the Moon is Illuminated

Today's Extremes

State Highs State Lows

Community

WunderPhotos

Upload Photos

1,814,383 photos uploaded!

WunderBlogs® & News

Nearby

Air Quality

  Air Quality AQ Index Pollutant
Not available.

Snow Depth

Station Depth Elevation

Earthquake Activity

City Distance Mag. Time & Date
Minimum magnitude displayed is 2.5.

Coastal Water Temperatures

Place Temperature

Stations

Nearby Weather Stations

Station Location Temp. Windchill Dew Point Humidity Wind Precip. Elev Updated Type